Time;durP1;ratioP1;P1;durP2;ratioP2;P2;SDS_P1;SDS_P2;PMS_P1;PMS_P2;Temp;Humidity;BMP_temperature;BMP_pressure;BME280_temperature;BME280_humidity;BME280_pressure;Samples;Min_cycle;Max_cycle;Signal;HPM_P1;HPM_P2
2023/07/14 00:00:15;;;;;;;3.00;2.80;;;17.80;1.00;;;;;;4964591;29;20438;-91
2023/07/14 00:02:42;;;;;;;3.00;2.43;;;18.00;1.00;;;;;;4965680;29;20509;-91
2023/07/14 00:05:14;;;;;;;3.50;2.80;;;18.00;1.00;;;;;;4965953;28;20501;-90
2023/07/14 00:07:41;;;;;;;2.70;2.50;;;18.00;1.00;;;;;;4967855;29;20470;-90
2023/07/14 00:10:15;;;;;;;3.23;3.03;;;17.90;1.00;;;;;;4965717;29;20449;-90
2023/07/14 00:12:42;;;;;;;3.13;2.90;;;19.10;1.00;;;;;;4966544;29;20437;-91
2023/07/14 00:15:10;;;;;;;3.30;3.10;;;18.10;99.90;;;;;;4965413;28;20496;-90
2023/07/14 00:17:38;;;;;;;3.03;2.77;;;17.90;1.00;;;;;;4964810;29;20445;-90
2023/07/14 00:20:19;;;;;;;5.60;2.90;;;17.70;1.00;;;;;;4967311;29;20442;-90
2023/07/14 00:22:46;;;;;;;3.13;2.93;;;17.40;99.90;;;;;;4964431;29;20466;-90
2023/07/14 00:25:14;;;;;;;3.43;3.13;;;17.80;1.00;;;;;;4965940;28;20556;-90
2023/07/14 00:27:41;;;;;;;3.60;3.00;;;17.70;1.00;;;;;;4964584;28;20489;-91
2023/07/14 00:30:15;;;;;;;3.23;2.53;;;17.70;1.00;;;;;;4964138;29;20459;-90
2023/07/14 00:32:44;;;;;;;3.50;3.30;;;17.70;1.00;;;;;;4964273;29;20438;-90
2023/07/14 00:35:22;;;;;;;3.10;2.80;;;17.70;1.00;;;;;;4964975;28;20471;-90
2023/07/14 00:37:49;;;;;;;3.00;2.80;;;17.70;1.00;;;;;;4964463;29;20528;-89
2023/07/14 00:40:19;;;;;;;3.43;2.67;;;17.60;1.00;;;;;;4966233;29;20450;-90
2023/07/14 00:42:48;;;;;;;4.67;2.93;;;17.50;99.90;;;;;;4978408;28;20892;-89
2023/07/14 00:45:19;;;;;;;3.47;3.17;;;17.60;1.00;;;;;;4980842;28;20474;-89
2023/07/14 00:47:52;;;;;;;3.10;2.80;;;17.60;1.00;;;;;;4980520;28;20466;-89
2023/07/14 00:50:26;;;;;;;3.20;2.53;;;17.70;26.10;;;;;;4975981;29;20435;-90
2023/07/14 00:52:55;;;;;;;2.77;2.57;;;18.70;1.00;;;;;;4973555;28;20488;-90
2023/07/14 00:55:32;;;;;;;3.20;3.00;;;17.60;1.00;;;;;;4969973;28;20470;-90
2023/07/14 00:57:59;;;;;;;8.73;3.63;;;17.50;1.00;;;;;;4966665;29;20437;-90
2023/07/14 01:00:30;;;;;;;3.90;3.60;;;17.50;1.00;;;;;;4970380;29;20493;-89
2023/07/14 01:02:58;;;;;;;3.23;2.93;;;17.40;1.00;;;;;;4967208;29;20445;-90
2023/07/14 01:05:26;;;;;;;3.60;3.30;;;17.40;1.00;;;;;;4963791;28;20482;-90
2023/07/14 01:07:55;;;;;;;3.13;2.80;;;18.50;1.00;;;;;;4963995;29;20520;-90
2023/07/14 01:10:27;;;;;;;4.37;3.13;;;17.60;1.00;;;;;;4976062;29;20465;-90
2023/07/14 01:12:58;;;;;;;3.13;2.83;;;17.30;1.00;;;;;;4974484;29;20493;-90
2023/07/14 01:15:25;;;;;;;3.03;2.83;;;17.40;1.00;;;;;;4974252;28;20553;-91
2023/07/14 01:17:53;;;;;;;3.30;3.03;;;17.50;1.00;;;;;;4980784;28;20445;-89
2023/07/14 01:20:22;;;;;;;3.80;3.40;;;17.40;1.00;;;;;;4975629;28;20482;-91
2023/07/14 01:23:01;;;;;;;3.27;3.07;;;17.40;1.00;;;;;;4973087;29;20427;-91
2023/07/14 01:25:38;;;;;;;3.50;3.27;;;17.40;1.00;;;;;;4977027;28;20466;-91
2023/07/14 01:28:08;;;;;;;6.73;3.33;;;17.30;1.00;;;;;;4973265;29;20453;-89
2023/07/14 01:30:37;;;;;;;3.47;3.27;;;17.20;1.00;;;;;;4975784;29;20494;-90
2023/07/14 01:33:04;;;;;;;3.77;3.47;;;;;;;;;;4980341;28;20473;-88
2023/07/14 01:35:34;;;;;;;3.73;3.30;;;17.10;1.00;;;;;;4980441;28;20468;-89
2023/07/14 01:38:01;;;;;;;5.40;3.03;;;17.20;1.00;;;;;;4980310;28;20465;-89
2023/07/14 01:40:29;;;;;;;3.77;3.43;;;;;;;;;;4979695;28;20445;-90
2023/07/14 01:42:59;;;;;;;3.70;3.10;;;17.00;1.00;;;;;;4980236;28;20446;-89
2023/07/14 01:45:33;;;;;;;3.43;3.13;;;17.00;1.00;;;;;;4978363;28;20481;-91
2023/07/14 01:48:03;;;;;;;4.17;3.87;;;16.90;1.00;;;;;;4965297;29;20462;-90
2023/07/14 01:50:33;;;;;;;4.00;3.60;;;16.90;1.00;;;;;;4963354;29;20449;-90
2023/07/14 01:53:06;;;;;;;3.40;3.17;;;15.80;1.00;;;;;;4963652;29;20505;-91
2023/07/14 01:55:35;;;;;;;3.00;2.70;;;16.90;1.00;;;;;;4963461;28;20497;-91
2023/07/14 01:58:06;;;;;;;3.33;2.97;;;16.90;1.00;;;;;;4963951;29;20478;-90
2023/07/14 02:00:35;;;;;;;4.40;4.00;;;16.80;99.90;;;;;;4962838;29;20488;-90
2023/07/14 02:03:04;;;;;;;5.47;3.50;;;16.80;1.00;;;;;;4966442;29;20502;-90
2023/07/14 02:05:34;;;;;;;3.50;3.20;;;16.80;1.00;;;;;;4974481;28;20909;-89
2023/07/14 02:08:04;;;;;;;4.57;3.10;;;17.00;1.00;;;;;;4974577;28;20526;-88
2023/07/14 02:10:32;;;;;;;4.57;4.03;;;16.70;99.90;;;;;;4980262;28;20425;-89
2023/07/14 02:13:01;;;;;;;3.50;3.20;;;16.70;1.00;;;;;;4976891;28;20493;-90
2023/07/14 02:15:32;;;;;;;4.40;4.00;;;16.70;1.00;;;;;;4968168;28;20477;-90
2023/07/14 02:18:01;;;;;;;7.43;4.20;;;16.80;5.60;;;;;;4970894;29;20534;-90
2023/07/14 02:20:33;;;;;;;3.80;3.50;;;16.70;3.00;;;;;;4969986;28;20460;-89
2023/07/14 02:23:02;;;;;;;4.83;4.10;;;16.60;1.00;;;;;;4964908;29;20439;-89
2023/07/14 02:25:35;;;;;;;4.63;3.90;;;16.50;56.90;;;;;;4962797;28;20919;-90
2023/07/14 02:28:02;;;;;;;4.13;3.60;;;;;;;;;;4964630;29;20511;-89
2023/07/14 02:30:34;;;;;;;5.23;3.73;;;16.50;1.00;;;;;;4979436;28;20447;-88
2023/07/14 02:33:07;;;;;;;5.73;4.00;;;16.60;99.90;;;;;;4979924;28;20423;-88
2023/07/14 02:35:45;;;;;;;5.47;4.33;;;16.50;62.70;;;;;;4978203;28;20432;-90
2023/07/14 02:38:13;;;;;;;3.80;3.50;;;16.60;99.90;;;;;;4964125;29;20472;-89
2023/07/14 02:40:47;;;;;;;4.27;3.67;;;16.60;99.90;;;;;;4963820;29;20449;-90
2023/07/14 02:43:16;;;;;;;4.83;3.90;;;16.30;99.90;;;;;;4965149;29;20470;-90
2023/07/14 02:45:48;;;;;;;4.77;4.37;;;16.70;68.70;;;;;;4962914;29;20463;-89
2023/07/14 02:48:19;;;;;;;6.37;4.07;;;16.60;99.90;;;;;;4965529;29;20500;-90
2023/07/14 02:50:47;;;;;;;6.00;4.70;;;;;;;;;;4968401;28;20917;-89
2023/07/14 02:53:14;;;;;;;3.47;3.20;;;16.60;99.90;;;;;;4966966;29;20464;-89
2023/07/14 02:55:41;;;;;;;4.70;4.30;;;;;;;;;;4982777;28;20454;-88
2023/07/14 02:58:08;;;;;;;3.53;3.30;;;;;;;;;;4982673;28;20440;-88
2023/07/14 03:00:35;;;;;;;5.87;3.80;;;16.60;1.00;;;;;;4977056;29;20456;-90
2023/07/14 03:03:02;;;;;;;4.47;4.07;;;16.60;99.90;;;;;;4969988;29;20456;-91
2023/07/14 03:05:31;;;;;;;4.60;3.60;;;16.60;99.90;;;;;;4969001;28;20480;-90
2023/07/14 03:08:00;;;;;;;5.07;4.57;;;;;;;;;;4965771;29;20540;-89
2023/07/14 03:10:28;;;;;;;4.40;4.00;;;;;;;;;;4972999;29;20463;-90
2023/07/14 03:12:55;;;;;;;4.60;4.20;;;;;;;;;;4971335;29;20521;-90
2023/07/14 03:15:22;;;;;;;4.17;3.73;;;16.50;99.90;;;;;;4964299;28;20510;-89
2023/07/14 03:17:49;;;;;;;4.77;4.30;;;16.60;99.90;;;;;;4964887;29;20492;-90
2023/07/14 03:20:16;;;;;;;5.30;4.63;;;16.80;1.00;;;;;;4966927;29;20555;-90
2023/07/14 03:25:21;;;;;;;6.87;4.50;;;16.80;1.00;;;;;;5005642;23;20548;-89
2023/07/14 03:27:48;;;;;;;4.63;4.13;;;;;;;;;;4965410;29;20559;-88
2023/07/14 03:30:15;;;;;;;5.13;4.50;;;16.60;99.90;;;;;;4964329;29;20442;-89
2023/07/14 03:32:42;;;;;;;4.97;3.97;;;16.40;99.90;;;;;;4963532;29;20472;-90
2023/07/14 03:35:09;;;;;;;3.97;3.67;;;16.00;99.90;;;;;;4962992;29;20509;-90
2023/07/14 03:37:36;;;;;;;3.77;3.40;;;17.30;99.90;;;;;;4962418;29;20548;-89
2023/07/14 03:40:05;;;;;;;3.90;3.60;;;16.30;99.90;;;;;;4961929;29;20508;-90
2023/07/14 03:42:34;;;;;;;4.27;3.73;;;16.70;99.90;;;;;;4962256;29;20520;-90
2023/07/14 03:45:01;;;;;;;5.13;4.00;;;16.70;99.90;;;;;;4961580;29;20510;-90
2023/07/14 03:47:28;;;;;;;7.93;4.13;;;;;;;;;;4961212;29;21065;-89
2023/07/14 03:49:56;;;;;;;4.30;4.00;;;;;;;;;;4962885;29;20976;-89
2023/07/14 03:52:23;;;;;;;7.50;4.43;;;16.80;1.00;;;;;;4961631;29;20441;-90
2023/07/14 03:54:50;;;;;;;5.00;4.60;;;16.60;99.90;;;;;;4964846;29;20485;-90
2023/07/14 03:57:17;;;;;;;7.00;4.40;;;16.40;1.00;;;;;;4963515;29;20887;-89
2023/07/14 03:59:46;;;;;;;4.33;4.03;;;16.40;1.00;;;;;;4962489;29;20518;-91
2023/07/14 04:02:13;;;;;;;9.13;4.10;;;;;;;;;;4961579;28;20484;-90
2023/07/14 04:04:40;;;;;;;4.27;3.87;;;;;;;;;;4964104;29;20474;-90
2023/07/14 04:07:08;;;;;;;5.53;4.80;;;16.60;99.90;;;;;;4966047;29;20510;-90
2023/07/14 04:09:35;;;;;;;5.30;4.30;;;;;;;;;;4961913;29;20829;-91
2023/07/14 04:12:02;;;;;;;5.20;4.37;;;;;;;;;;4963146;29;20489;-90
2023/07/14 04:14:30;;;;;;;6.07;4.63;;;;;;;;;;4962862;29;21009;-91
2023/07/14 04:16:58;;;;;;;5.10;4.60;;;16.70;92.90;;;;;;4962808;29;20545;-90
2023/07/14 04:19:25;;;;;;;5.20;4.80;;;16.90;99.90;;;;;;4961011;29;20499;-90
2023/07/14 04:21:52;;;;;;;4.70;4.30;;;;;;;;;;4962546;29;20472;-90
2023/07/14 04:24:19;;;;;;;10.80;5.17;;;16.70;73.40;;;;;;4967657;29;20465;-91
2023/07/14 04:26:47;;;;;;;5.30;4.80;;;16.60;98.40;;;;;;4970507;28;21018;-90
2023/07/14 04:29:14;;;;;;;5.97;5.37;;;;;;;;;;4963655;29;20449;-90
2023/07/14 04:31:41;;;;;;;5.70;5.17;;;;;;;;;;4961576;29;20456;-90
2023/07/14 04:34:10;;;;;;;4.67;4.27;;;17.00;99.90;;;;;;4961635;29;20473;-90
2023/07/14 04:36:37;;;;;;;9.70;5.57;;;17.00;99.90;;;;;;4961493;29;20460;-90
2023/07/14 04:39:06;;;;;;;5.27;4.43;;;17.20;1.00;;;;;;4961080;29;20583;-90
2023/07/14 04:41:34;;;;;;;5.70;5.00;;;17.80;1.00;;;;;;4960257;29;20457;-90
2023/07/14 04:44:03;;;;;;;5.57;4.77;;;17.60;1.00;;;;;;4961361;29;20470;-90
2023/07/14 04:46:31;;;;;;;5.27;4.63;;;;;;;;;;4967838;29;20458;-90
2023/07/14 04:48:58;;;;;;;6.40;4.67;;;18.10;99.90;;;;;;4978985;28;20477;-92
2023/07/14 04:51:27;;;;;;;7.90;5.30;;;17.80;99.90;;;;;;4981019;28;20525;-90
2023/07/14 04:53:54;;;;;;;6.50;5.90;;;17.80;99.90;;;;;;4980894;28;20454;-90
2023/07/14 04:56:22;;;;;;;8.90;4.97;;;17.60;1.00;;;;;;4973829;28;20463;-90
2023/07/14 04:58:49;;;;;;;9.17;6.07;;;18.40;1.00;;;;;;4968947;29;20446;-89
2023/07/14 05:01:16;;;;;;;6.60;5.10;;;17.30;1.00;;;;;;4967011;29;20466;-89
2023/07/14 05:03:44;;;;;;;8.27;5.13;;;17.70;99.90;;;;;;4967003;29;20565;-90
2023/07/14 05:06:11;;;;;;;5.10;4.60;;;17.40;99.90;;;;;;4973348;28;20548;-91
2023/07/14 05:08:39;;;;;;;6.03;4.80;;;17.50;1.00;;;;;;4980755;28;20485;-93
2023/07/14 05:11:07;;;;;;;5.37;4.87;;;;;;;;;;4980925;28;20432;-91
2023/07/14 05:13:35;;;;;;;6.47;5.10;;;17.50;99.90;;;;;;4980148;28;20426;-90
2023/07/14 05:16:02;;;;;;;8.83;5.90;;;;;;;;;;4975543;28;20466;-89
2023/07/14 05:18:29;;;;;;;5.87;4.90;;;;;;;;;;4966746;29;20496;-89
2023/07/14 05:20:59;;;;;;;4.77;4.37;;;17.50;1.00;;;;;;4978045;28;20457;-90
2023/07/14 05:23:27;;;;;;;6.67;5.60;;;17.60;99.90;;;;;;4979299;28;20442;-90
2023/07/14 05:25:56;;;;;;;5.77;4.90;;;17.90;1.00;;;;;;4979325;28;20418;-89
2023/07/14 05:28:24;;;;;;;5.90;4.87;;;18.40;1.00;;;;;;4974828;28;20538;-89
2023/07/14 05:30:51;;;;;;;7.47;5.00;;;17.40;1.00;;;;;;4967469;29;20502;-89
2023/07/14 05:33:18;;;;;;;5.40;4.47;;;18.20;99.90;;;;;;4964018;29;20549;-90
2023/07/14 05:35:46;;;;;;;5.33;4.60;;;17.90;1.00;;;;;;4978623;28;20434;-90
2023/07/14 05:38:13;;;;;;;5.87;5.20;;;18.10;1.00;;;;;;4962771;29;20485;-89
2023/07/14 05:40:39;;;;;;;5.37;4.97;;;18.30;1.00;;;;;;4962144;29;20532;-89
2023/07/14 05:43:08;;;;;;;5.53;4.90;;;18.10;1.00;;;;;;4964018;29;20605;-89
2023/07/14 05:45:35;;;;;;;5.40;4.90;;;18.20;1.00;;;;;;4960283;29;20496;-89
2023/07/14 05:48:02;;;;;;;6.17;4.77;;;18.10;1.00;;;;;;4960216;29;20489;-89
2023/07/14 05:50:29;;;;;;;5.47;4.83;;;18.20;1.00;;;;;;4960226;29;20541;-90
2023/07/14 05:52:56;;;;;;;5.20;4.20;;;18.00;1.00;;;;;;4961468;29;20496;-89
2023/07/14 05:55:23;;;;;;;6.70;5.10;;;;;;;;;;4959238;29;20513;-89
2023/07/14 05:57:50;;;;;;;5.80;5.20;;;18.20;1.00;;;;;;4959158;29;20525;-89
2023/07/14 06:00:20;;;;;;;6.20;4.37;;;18.20;1.00;;;;;;4952703;29;20439;-90
2023/07/14 06:02:50;;;;;;;7.57;4.93;;;18.30;1.00;;;;;;4960088;29;20431;-89
2023/07/14 06:05:19;;;;;;;5.80;4.40;;;18.20;1.00;;;;;;4959502;29;20478;-90
2023/07/14 06:07:47;;;;;;;8.37;4.70;;;18.20;1.00;;;;;;4959082;29;20541;-89
2023/07/14 06:10:14;;;;;;;5.97;3.67;;;18.30;1.00;;;;;;4959419;29;20501;-89
2023/07/14 06:12:41;;;;;;;6.67;5.43;;;18.40;99.90;;;;;;4958634;29;20938;-89
2023/07/14 06:15:11;;;;;;;4.90;4.40;;;18.30;1.00;;;;;;4960567;29;20604;-89
2023/07/14 06:17:40;;;;;;;4.37;3.97;;;18.30;1.00;;;;;;4970045;28;20458;-89
2023/07/14 06:20:11;;;;;;;11.17;6.00;;;18.30;1.00;;;;;;4960857;29;20490;-91
2023/07/14 06:22:38;;;;;;;4.60;4.13;;;18.40;1.00;;;;;;4960038;29;20442;-90
2023/07/14 06:25:05;;;;;;;6.60;4.97;;;18.20;1.00;;;;;;4959320;28;20488;-90
2023/07/14 06:27:33;;;;;;;7.20;5.00;;;18.40;1.00;;;;;;4962778;29;20490;-90
2023/07/14 06:30:00;;;;;;;5.43;4.67;;;;;;;;;;4967394;29;20460;-90
2023/07/14 06:32:27;;;;;;;4.70;4.30;;;;;;;;;;4970613;29;20454;-90
2023/07/14 06:34:56;;;;;;;4.97;4.47;;;18.50;1.00;;;;;;4963884;29;20478;-90
2023/07/14 06:37:24;;;;;;;8.50;6.80;;;;;;;;;;4964737;29;20458;-90
2023/07/14 06:39:52;;;;;;;8.30;7.50;;;;;;;;;;4964200;29;20868;-90
2023/07/14 06:42:19;;;;;;;5.63;5.00;;;18.60;1.00;;;;;;4965096;29;20825;-90
2023/07/14 06:44:46;;;;;;;5.07;4.20;;;19.60;1.00;;;;;;4964067;29;20469;-90
2023/07/14 06:47:15;;;;;;;5.90;4.63;;;18.80;1.00;;;;;;4964371;29;20476;-91
2023/07/14 06:49:42;;;;;;;6.43;4.80;;;18.60;1.00;;;;;;4964094;29;20478;-90
2023/07/14 06:52:12;;;;;;;4.87;4.47;;;20.20;1.00;;;;;;4965441;29;20426;-89
2023/07/14 06:54:40;;;;;;;8.03;3.97;;;;;;;;;;4976094;28;20528;-90
2023/07/14 06:57:08;;;;;;;6.73;4.33;;;;;;;;;;4966452;29;20452;-90
2023/07/14 06:59:36;;;;;;;3.87;3.53;;;;;;;;;;4963636;29;20469;-90
2023/07/14 07:02:03;;;;;;;4.33;3.93;;;;;;;;;;4964302;29;20458;-91
2023/07/14 07:04:33;;;;;;;4.30;3.90;;;19.00;1.00;;;;;;4964582;29;20454;-90
2023/07/14 07:07:01;;;;;;;7.03;4.00;;;;;;;;;;4969277;29;20467;-91
2023/07/14 07:09:33;;;;;;;10.73;3.67;;;19.30;1.00;;;;;;4978817;28;20501;-91
2023/07/14 07:12:00;;;;;;;6.80;3.60;;;;;;;;;;4981813;28;20474;-91
2023/07/14 07:14:30;;;;;;;4.33;3.87;;;19.40;1.00;;;;;;4981876;28;20486;-92
2023/07/14 07:16:58;;;;;;;4.30;3.83;;;;;;;;;;4982800;28;20438;-93
2023/07/14 07:19:25;;;;;;;4.70;3.37;;;;;;;;;;4979753;28;20513;-90
2023/07/14 07:21:53;;;;;;;3.50;3.03;;;;;;;;;;4965195;29;20490;-90
2023/07/14 07:24:22;;;;;;;6.63;4.27;;;;;;;;;;4969167;29;20518;-90
2023/07/14 07:26:50;;;;;;;6.70;4.43;;;19.50;1.00;;;;;;4968543;29;20442;-89
2023/07/14 07:29:17;;;;;;;5.67;4.57;;;;;;;;;;4969514;29;20579;-90
2023/07/14 07:31:50;;;;;;;26.57;4.97;;;19.70;1.00;;;;;;4967990;29;20498;-90
2023/07/14 07:34:18;;;;;;;9.40;3.80;;;;;;;;;;4967971;29;20825;-91
2023/07/14 07:36:47;;;;;;;4.33;3.63;;;;;;;;;;4965128;28;20462;-91
2023/07/14 07:39:14;;;;;;;5.03;3.63;;;;;;;;;;4964266;29;20804;-91
2023/07/14 07:41:42;;;;;;;3.20;2.90;;;;;;;;;;4964998;29;20469;-90
2023/07/14 07:44:14;;;;;;;3.10;2.90;;;20.00;1.00;;;;;;4963885;29;20543;-91
2023/07/14 07:46:42;;;;;;;3.90;3.17;;;;;;;;;;4964567;29;20441;-91
2023/07/14 07:49:09;;;;;;;6.07;3.83;;;20.10;1.00;;;;;;4966716;29;20978;-91
2023/07/14 07:51:45;;;;;;;4.23;3.90;;;20.40;1.00;;;;;;4967502;29;20880;-91
2023/07/14 07:54:14;;;;;;;3.40;3.10;;;;;;;;;;4964319;29;20464;-91
2023/07/14 07:56:43;;;;;;;4.67;3.53;;;;;;;;;;4963259;29;20800;-91
2023/07/14 07:59:20;;;;;;;3.90;3.60;;;20.40;99.90;;;;;;4966392;29;20462;-90
2023/07/14 08:01:48;;;;;;;4.87;2.97;;;;;;;;;;4975303;29;20454;-91
2023/07/14 08:04:16;;;;;;;4.83;2.10;;;;;;;;;;4977605;29;20464;-90
2023/07/14 08:06:43;;;;;;;2.50;2.30;;;;;;;;;;4980999;28;20442;-91
2023/07/14 08:09:13;;;;;;;2.50;2.30;;;20.70;1.00;;;;;;4979547;28;20547;-91
2023/07/14 08:11:42;;;;;;;4.60;3.30;;;;;;;;;;4976911;29;20461;-91
2023/07/14 08:16:57;;;;;;;2.20;1.90;;;20.50;99.90;;;;;;4966705;29;20468;-91
2023/07/14 08:19:27;;;;;;;2.60;2.40;;;;;;;;;;4967430;29;20816;-91
2023/07/14 08:21:58;;;;;;;3.03;2.80;;;20.80;99.90;;;;;;4978616;29;20482;-91
2023/07/14 08:24:53;;;;;;;3.50;2.70;;;21.00;99.90;;;;;;4978361;29;20469;-91
2023/07/14 08:27:21;;;;;;;4.77;2.63;;;;;;;;;;4943703;29;20454;-91
2023/07/14 08:29:49;;;;;;;3.00;2.47;;;;;;;;;;4969906;29;20842;-90
2023/07/14 08:32:18;;;;;;;5.40;3.00;;;21.20;99.90;;;;;;4970751;29;20444;-90
2023/07/14 08:34:53;;;;;;;3.37;2.67;;;;;;;;;;4973093;29;20478;-90
2023/07/14 08:40:09;;;;;;;2.37;2.17;;;;;;;;;;4968686;29;20472;-91
2023/07/14 08:43:09;;;;;;;2.23;2.10;;;21.20;99.90;;;;;;4971694;29;20457;-91
2023/07/14 08:45:51;;;;;;;2.37;2.10;;;21.30;1.00;;;;;;4950127;29;20478;-90
2023/07/14 08:48:56;;;;;;;2.53;2.17;;;21.40;99.90;;;;;;4965772;28;20486;-90
2023/07/14 08:54:26;;;;;;;3.53;2.27;;;21.30;99.90;;;;;;4969008;29;20469;-91
2023/07/14 08:57:04;;;;;;;3.50;2.43;;;21.50;99.90;;;;;;4970407;29;20417;-90
2023/07/14 08:59:52;;;;;;;3.90;1.90;;;21.60;99.90;;;;;;4978514;29;20425;-90
2023/07/14 09:02:59;;;;;;;3.50;2.10;;;21.50;99.90;;;;;;4969807;29;20803;-91
2023/07/14 09:05:41;;;;;;;3.03;2.33;;;21.30;99.90;;;;;;4858640;29;20554;-91
2023/07/14 09:08:16;;;;;;;6.50;2.40;;;21.40;99.90;;;;;;4947977;29;20438;-89
2023/07/14 09:11:26;;;;;;;4.13;2.50;;;21.50;99.90;;;;;;4966992;29;20908;-90
2023/07/14 09:14:04;;;;;;;2.23;2.03;;;21.50;99.90;;;;;;4973613;29;20478;-90
2023/07/14 09:20:00;;;;;;;8.30;2.60;;;21.70;1.00;;;;;;4965320;29;20434;-91
2023/07/14 09:22:44;;;;;;;2.90;2.70;;;21.90;99.90;;;;;;4968954;29;20449;-90
2023/07/14 09:25:37;;;;;;;3.80;2.10;;;22.20;99.90;;;;;;4968310;28;20498;-91
2023/07/14 09:28:19;;;;;;;4.80;2.97;;;22.00;99.90;;;;;;4974463;29;20443;-91
2023/07/14 09:31:28;;;;;;;6.20;2.33;;;22.00;99.90;;;;;;4977194;29;20480;-91
2023/07/14 09:34:00;;;;;;;2.53;2.10;;;22.20;99.90;;;;;;4974096;29;20514;-90
2023/07/14 09:36:38;;;;;;;3.77;1.80;;;22.10;99.90;;;;;;4979802;28;20425;-91
2023/07/14 09:39:11;;;;;;;3.97;3.07;;;22.10;99.90;;;;;;4976202;28;20462;-91
2023/07/14 09:41:40;;;;;;;6.60;5.90;;;22.10;99.90;;;;;;4972343;29;20426;-90
2023/07/14 09:44:20;;;;;;;2.93;2.73;;;22.40;1.00;;;;;;4971182;29;20458;-92
2023/07/14 09:46:49;;;;;;;1.83;1.73;;;22.00;99.90;;;;;;4969737;29;20450;-91
2023/07/14 09:49:26;;;;;;;2.20;2.00;;;24.20;99.90;;;;;;4967833;29;20516;-90
2023/07/14 09:52:10;;;;;;;4.30;2.90;;;22.20;99.90;;;;;;4967501;29;20437;-91
2023/07/14 09:54:44;;;;;;;2.73;2.53;;;22.50;99.90;;;;;;4969676;28;20483;-90
2023/07/14 09:57:13;;;;;;;6.60;4.50;;;22.70;99.90;;;;;;4972756;29;20419;-91
2023/07/14 09:59:52;;;;;;;3.70;3.23;;;22.80;99.90;;;;;;4969973;28;20450;-92
2023/07/14 10:02:21;;;;;;;5.00;2.33;;;22.80;99.90;;;;;;4972790;29;20474;-91
2023/07/14 10:04:48;;;;;;;3.67;2.37;;;;;;;;;;4979499;28;20474;-88
2023/07/14 10:07:32;;;;;;;2.73;2.20;;;22.70;1.00;;;;;;4979725;28;20446;-87
2023/07/14 10:10:07;;;;;;;8.00;2.70;;;22.40;99.90;;;;;;4975921;28;20482;-91
2023/07/14 10:12:40;;;;;;;2.90;2.67;;;22.40;99.90;;;;;;4967825;29;20429;-91
2023/07/14 10:15:30;;;;;;;3.87;2.60;;;22.10;99.90;;;;;;4969552;29;20479;-92
2023/07/14 10:17:58;;;;;;;4.97;2.50;;;22.10;99.90;;;;;;4968367;29;20525;-91
2023/07/14 10:20:27;;;;;;;2.50;2.30;;;;;;;;;;4968058;29;20442;-91
2023/07/14 10:22:56;;;;;;;3.80;3.00;;;22.40;99.90;;;;;;4970168;29;20510;-91
2023/07/14 10:25:25;;;;;;;2.83;2.30;;;22.60;99.90;;;;;;4974308;29;20507;-91
2023/07/14 10:27:59;;;;;;;2.37;2.17;;;22.50;99.90;;;;;;4969374;29;20801;-91
2023/07/14 10:30:52;;;;;;;2.20;2.00;;;22.60;1.00;;;;;;4967115;29;20470;-91
2023/07/14 10:33:25;;;;;;;3.23;2.93;;;22.80;99.90;;;;;;4967829;29;20419;-91
2023/07/14 10:35:59;;;;;;;3.20;2.70;;;23.20;99.90;;;;;;4969791;28;20465;-89
2023/07/14 10:38:28;;;;;;;5.33;4.83;;;23.60;99.90;;;;;;4974037;28;20434;-91
2023/07/14 10:41:00;;;;;;;3.73;3.43;;;23.60;99.90;;;;;;4972621;29;20442;-91
2023/07/14 10:43:33;;;;;;;6.20;3.80;;;24.50;1.00;;;;;;4969666;29;20473;-90
2023/07/14 10:46:06;;;;;;;4.50;2.90;;;23.80;99.90;;;;;;4969310;29;20462;-90
2023/07/14 10:48:37;;;;;;;4.07;3.77;;;23.80;99.90;;;;;;4968113;29;20427;-91
2023/07/14 10:51:11;;;;;;;7.27;5.70;;;23.70;99.90;;;;;;4966397;29;20442;-92
2023/07/14 10:53:44;;;;;;;3.23;2.93;;;23.70;99.90;;;;;;4968270;29;20470;-92
2023/07/14 10:56:20;;;;;;;4.43;2.47;;;23.80;99.90;;;;;;4973747;29;20442;-90
2023/07/14 10:58:55;;;;;;;3.30;3.00;;;23.80;99.90;;;;;;4966533;29;21030;-91
2023/07/14 11:01:30;;;;;;;6.10;3.20;;;23.50;99.90;;;;;;4967488;29;20440;-90
2023/07/14 11:04:03;;;;;;;3.30;2.63;;;23.40;1.00;;;;;;4977168;28;20464;-90
2023/07/14 11:06:33;;;;;;;2.83;2.53;;;23.20;99.90;;;;;;4978948;28;20446;-91
2023/07/14 11:09:00;;;;;;;4.70;3.30;;;23.20;99.90;;;;;;4972630;29;20485;-91
2023/07/14 11:11:36;;;;;;;4.27;2.90;;;23.50;99.90;;;;;;4967998;28;20450;-90
2023/07/14 11:14:18;;;;;;;5.00;3.30;;;23.40;99.90;;;;;;4970579;29;20470;-90
2023/07/14 11:16:56;;;;;;;3.00;2.80;;;23.30;99.90;;;;;;4970078;29;20922;-91
2023/07/14 11:19:40;;;;;;;5.90;4.50;;;22.90;1.00;;;;;;4970347;29;20427;-93
2023/07/14 11:22:17;;;;;;;5.13;3.43;;;23.10;99.90;;;;;;4979514;28;20421;-91
2023/07/14 11:24:57;;;;;;;3.13;2.50;;;23.20;99.90;;;;;;4977567;29;20461;-92
2023/07/14 11:27:33;;;;;;;4.30;2.77;;;23.50;99.90;;;;;;4973353;29;20506;-94
2023/07/14 11:30:09;;;;;;;9.67;7.10;;;23.70;99.90;;;;;;4979211;29;20538;-92
2023/07/14 11:32:47;;;;;;;5.80;4.77;;;23.90;99.90;;;;;;4979415;28;20477;-89
2023/07/14 11:35:22;;;;;;;3.10;2.60;;;23.90;99.90;;;;;;4971383;29;20525;-89
2023/07/14 11:38:03;;;;;;;2.43;2.23;;;24.10;99.90;;;;;;4968023;29;20484;-91
2023/07/14 11:40:47;;;;;;;2.70;2.50;;;24.10;99.90;;;;;;4967823;29;20849;-89
2023/07/14 11:43:18;;;;;;;3.10;2.80;;;24.30;99.90;;;;;;4973187;29;20458;-90
2023/07/14 11:45:48;;;;;;;4.07;2.80;;;24.30;99.90;;;;;;4976047;29;20431;-90
2023/07/14 11:48:24;;;;;;;3.70;3.40;;;24.40;99.90;;;;;;4967621;29;20435;-90
2023/07/14 11:51:05;;;;;;;3.20;2.90;;;24.10;1.00;;;;;;4978115;28;20462;-88
2023/07/14 11:53:33;;;;;;;4.30;3.03;;;24.00;99.90;;;;;;4982101;28;20450;-88
2023/07/14 11:56:21;;;;;;;5.80;3.20;;;23.90;99.90;;;;;;4982018;28;20442;-88
2023/07/14 11:58:52;;;;;;;3.37;3.00;;;24.30;99.90;;;;;;4980917;28;20430;-89
2023/07/14 12:01:28;;;;;;;2.90;2.70;;;24.30;99.90;;;;;;4980833;28;20473;-90
2023/07/14 12:04:16;;;;;;;3.00;2.70;;;24.50;99.90;;;;;;4971034;29;20542;-90
2023/07/14 12:06:46;;;;;;;3.63;3.00;;;24.40;99.90;;;;;;4970762;29;20498;-90
2023/07/14 12:09:16;;;;;;;6.17;2.77;;;24.20;99.90;;;;;;4968352;29;20558;-90
2023/07/14 12:11:55;;;;;;;6.57;3.13;;;24.30;99.90;;;;;;4965619;29;20904;-90
2023/07/14 12:14:27;;;;;;;3.97;3.30;;;24.50;99.90;;;;;;4965006;29;20474;-90
2023/07/14 12:16:57;;;;;;;3.37;3.07;;;24.60;99.90;;;;;;4962375;29;20538;-90
2023/07/14 12:19:26;;;;;;;3.90;3.30;;;24.80;99.90;;;;;;4962246;29;20446;-90
2023/07/14 12:22:02;;;;;;;8.13;3.93;;;25.00;99.90;;;;;;4979519;28;20442;-88
2023/07/14 12:24:31;;;;;;;4.10;3.63;;;25.10;99.90;;;;;;4963014;28;20489;-90
2023/07/14 12:27:18;;;;;;;4.90;4.07;;;25.10;99.90;;;;;;4969589;28;20486;-90
2023/07/14 12:29:45;;;;;;;3.30;3.00;;;24.70;99.90;;;;;;4963746;29;20800;-91
2023/07/14 12:32:20;;;;;;;4.03;3.10;;;24.60;99.90;;;;;;4963564;29;20465;-90
2023/07/14 12:34:47;;;;;;;4.10;3.13;;;24.60;99.90;;;;;;4963014;29;20508;-90
2023/07/14 12:37:19;;;;;;;4.40;3.63;;;24.80;99.90;;;;;;4962910;29;20541;-89
2023/07/14 12:39:47;;;;;;;4.33;3.70;;;24.80;99.90;;;;;;4962128;29;20457;-89
2023/07/14 12:42:15;;;;;;;3.87;3.57;;;24.90;99.90;;;;;;4970458;29;20455;-90
2023/07/14 12:44:43;;;;;;;11.50;3.60;;;25.00;99.90;;;;;;4969558;29;20773;-90
2023/07/14 12:47:15;;;;;;;4.10;3.10;;;25.00;99.90;;;;;;4973290;29;20453;-90
2023/07/14 12:49:47;;;;;;;3.20;2.90;;;25.20;99.90;;;;;;4971462;29;20475;-90
2023/07/14 12:52:18;;;;;;;3.50;3.20;;;25.20;99.90;;;;;;4976760;29;20954;-90
2023/07/14 12:54:46;;;;;;;3.17;2.87;;;25.30;99.90;;;;;;4976022;29;20466;-89
2023/07/14 12:57:15;;;;;;;4.60;3.50;;;25.20;99.90;;;;;;4967806;29;20509;-91
2023/07/14 12:59:47;;;;;;;3.33;3.03;;;25.20;99.90;;;;;;4964056;29;20974;-89
2023/07/14 13:02:14;;;;;;;4.33;3.80;;;24.90;99.90;;;;;;4963642;29;20544;-90
2023/07/14 13:04:42;;;;;;;5.37;3.73;;;24.90;99.90;;;;;;4963443;29;20467;-90
2023/07/14 13:07:14;;;;;;;4.57;3.10;;;25.00;99.90;;;;;;4963642;29;20541;-90
2023/07/14 13:09:42;;;;;;;3.90;3.50;;;24.80;99.90;;;;;;4964006;29;20481;-90
2023/07/14 13:12:10;;;;;;;3.80;3.13;;;24.70;99.90;;;;;;4963931;29;20955;-90
2023/07/14 13:14:43;;;;;;;3.73;3.30;;;24.60;99.90;;;;;;4964314;29;20561;-90
2023/07/14 13:17:17;;;;;;;4.20;3.67;;;24.60;99.90;;;;;;4962452;29;20446;-90
2023/07/14 13:19:48;;;;;;;6.50;3.83;;;24.80;99.90;;;;;;4964227;29;20490;-90
2023/07/14 13:22:20;;;;;;;5.67;3.40;;;25.00;99.90;;;;;;4968195;28;20446;-89
2023/07/14 13:24:58;;;;;;;4.30;3.90;;;25.20;99.90;;;;;;4972065;28;20522;-90
2023/07/14 13:27:26;;;;;;;5.60;3.70;;;25.00;1.00;;;;;;4966125;29;20442;-91
2023/07/14 13:29:59;;;;;;;8.37;3.70;;;25.20;99.90;;;;;;4968128;29;20478;-90
2023/07/14 13:32:26;;;;;;;4.50;3.80;;;;;;;;;;4967071;29;20529;-90
2023/07/14 13:34:59;;;;;;;3.63;3.20;;;24.80;99.90;;;;;;4965940;28;20474;-90
2023/07/14 13:37:28;;;;;;;4.83;4.10;;;24.80;99.90;;;;;;4964224;29;20438;-90
2023/07/14 13:39:57;;;;;;;5.20;4.03;;;24.80;99.90;;;;;;4964760;29;21002;-90
2023/07/14 13:42:29;;;;;;;4.50;4.10;;;24.80;99.90;;;;;;4961398;29;20450;-90
2023/07/14 13:44:59;;;;;;;4.60;4.20;;;24.80;99.90;;;;;;4960832;29;20656;-90